createdAt,value
2019-02-10T00:00:02.316Z,2.6
2019-02-10T00:01:02.271Z,2.6
2019-02-10T00:02:02.146Z,2.5
2019-02-10T00:03:02.454Z,2.5
2019-02-10T00:04:02.332Z,2.5
2019-02-10T00:05:02.255Z,2.5
2019-02-10T00:06:02.164Z,2.5
2019-02-10T00:07:02.066Z,2.4
2019-02-10T00:08:01.950Z,2.4
2019-02-10T00:09:01.830Z,2.4
2019-02-10T00:10:01.735Z,2.4
2019-02-10T00:11:01.628Z,2.4
2019-02-10T00:12:01.538Z,2.4
2019-02-10T00:13:01.838Z,2.4
2019-02-10T00:22:59.809Z,3
2019-02-10T00:23:59.717Z,2.9
2019-02-10T00:24:59.629Z,2.9
2019-02-10T00:25:59.504Z,2.8
2019-02-10T00:26:59.386Z,2.8
2019-02-10T00:27:59.295Z,2.8
2019-02-10T00:28:59.184Z,2.7
2019-02-10T00:29:59.069Z,2.7
2019-02-10T00:30:59.018Z,2.7
2019-02-10T00:31:58.894Z,2.6
2019-02-10T00:32:59.182Z,2.6
2019-02-10T00:33:59.071Z,2.5
2019-02-10T00:34:59.020Z,2.5
2019-02-10T00:35:58.904Z,2.5
2019-02-10T00:36:58.797Z,2.4
2019-02-10T00:37:58.674Z,2.4
2019-02-10T00:38:58.568Z,2.4
2019-02-10T00:39:58.456Z,2.4
2019-02-10T00:40:58.342Z,2.3
2019-02-10T00:41:58.249Z,2.3
2019-02-10T00:42:58.544Z,2.3
2019-02-10T00:43:58.429Z,2.3
2019-02-10T00:44:58.376Z,2.3
2019-02-10T00:45:58.280Z,2.3
2019-02-10T00:46:58.171Z,2.3
2019-02-10T00:47:58.078Z,2.3
2019-02-10T00:48:57.989Z,2.3
2019-02-10T00:49:57.869Z,2.3
2019-02-10T00:50:57.756Z,2.2
2019-02-10T00:51:57.662Z,2.2
2019-02-10T00:52:57.993Z,2.2
2019-02-10T00:53:57.875Z,2.2
2019-02-10T00:54:57.777Z,2.2
2019-02-10T00:55:57.657Z,2.2
2019-02-10T00:56:57.537Z,2.2
2019-02-10T00:57:57.418Z,2.2
2019-02-10T00:58:57.282Z,2.2
2019-02-10T00:59:57.192Z,2.2
2019-02-10T01:00:57.074Z,2.1
2019-02-10T01:01:56.965Z,2.2
2019-02-10T01:02:57.272Z,2.1
2019-02-10T01:03:57.147Z,2.1
2019-02-10T01:04:57.038Z,2.1
2019-02-10T01:05:56.945Z,2.1
2019-02-10T01:06:56.850Z,2
2019-02-10T01:07:56.731Z,2
2019-02-10T01:08:56.610Z,1.9
2019-02-10T01:09:56.508Z,1.9
2019-02-10T01:10:56.432Z,1.9
2019-02-10T01:11:56.360Z,1.9
2019-02-10T01:12:56.769Z,1.9
2019-02-10T01:13:56.664Z,1.9
2019-02-10T01:14:56.545Z,1.9
2019-02-10T01:15:56.435Z,1.9
2019-02-10T01:16:56.325Z,1.8
2019-02-10T01:17:56.212Z,1.8
2019-02-10T01:18:56.100Z,1.8
2019-02-10T01:19:55.975Z,1.8
2019-02-10T01:20:55.858Z,1.8
2019-02-10T01:21:55.782Z,1.7
2019-02-10T01:22:56.081Z,1.8
2019-02-10T01:23:55.969Z,1.8
2019-02-10T01:24:55.847Z,1.8
2019-02-10T01:25:55.722Z,1.8
2019-02-10T01:26:55.614Z,1.9
2019-02-10T01:27:55.513Z,1.9
2019-02-10T01:28:55.380Z,1.8
2019-02-10T01:29:55.255Z,1.8
2019-02-10T01:30:55.160Z,1.8
2019-02-10T01:31:55.077Z,1.8
2019-02-10T01:32:55.373Z,1.9
2019-02-10T01:33:55.245Z,1.8
2019-02-10T01:34:55.129Z,1.8
2019-02-10T01:35:55.021Z,1.7
2019-02-10T01:36:54.927Z,1.8
2019-02-10T01:37:54.812Z,1.8
2019-02-10T01:38:54.703Z,1.8
2019-02-10T01:39:54.988Z,1.7
2019-02-10T01:40:54.893Z,1.8
2019-02-10T01:41:54.799Z,1.8
2019-02-10T01:42:55.097Z,1.7
2019-02-10T01:43:54.982Z,1.7
2019-02-10T01:44:54.865Z,1.8
2019-02-10T01:45:54.756Z,1.8
2019-02-10T01:46:54.679Z,1.8
2019-02-10T01:47:54.555Z,1.7
2019-02-10T01:48:54.431Z,1.7
2019-02-10T01:49:54.327Z,1.7
2019-02-10T01:50:54.218Z,1.8
2019-02-10T01:51:54.107Z,1.7
2019-02-10T01:52:54.407Z,1.7
2019-02-10T01:53:54.343Z,1.7
2019-02-10T01:54:54.265Z,1.7
2019-02-10T01:55:54.159Z,1.7
2019-02-10T01:56:54.065Z,1.7
2019-02-10T01:57:53.950Z,1.7
2019-02-10T01:58:53.831Z,1.7
2019-02-10T01:59:53.730Z,1.7
2019-02-10T02:00:53.631Z,1.7
2019-02-10T02:01:53.545Z,1.7
2019-02-10T02:02:53.901Z,1.6
2019-02-10T02:03:53.817Z,1.6
2019-02-10T02:04:53.703Z,1.6
2019-02-10T02:05:53.609Z,1.6
2019-02-10T02:06:58.682Z,1.6
2019-02-10T02:08:00.369Z,1.6
2019-02-10T02:09:00.273Z,1.6
2019-02-10T02:10:00.265Z,1.6
2019-02-10T02:11:00.169Z,1.6
2019-02-10T02:12:00.071Z,1.6
2019-02-10T02:13:00.373Z,1.6
2019-02-10T02:14:00.259Z,1.6
2019-02-10T02:15:00.307Z,1.7
2019-02-10T02:16:00.213Z,1.8
2019-02-10T02:17:00.167Z,1.9
2019-02-10T02:20:59.246Z,2.2
2019-02-10T02:21:59.203Z,2.2
2019-02-10T02:22:59.506Z,2.2
2019-02-10T02:23:59.393Z,2.2
2019-02-10T02:24:59.277Z,2.2
2019-02-10T02:25:59.166Z,2.2
2019-02-10T02:26:59.084Z,2.2
2019-02-10T02:27:58.987Z,2.2
2019-02-10T02:28:58.873Z,2.2
2019-02-10T02:29:58.769Z,2.1
2019-02-10T02:30:58.666Z,2.1
2019-02-10T02:31:58.591Z,2.1
2019-02-10T02:32:58.918Z,2.1
2019-02-10T02:33:58.813Z,2.1
2019-02-10T02:34:58.723Z,2.1
2019-02-10T02:35:58.644Z,2.1
2019-02-10T02:37:08.748Z,2.2
2019-02-10T02:38:08.729Z,2.2
2019-02-10T02:43:08.047Z,2.5
2019-02-10T02:45:08.495Z,2.6
2019-02-10T02:46:08.404Z,2.6
2019-02-10T02:47:08.345Z,2.6
2019-02-10T02:49:08.019Z,2.6
2019-02-10T02:51:07.652Z,2.7
2019-02-10T02:52:07.567Z,2.6
2019-02-10T02:53:07.863Z,2.6
2019-02-10T02:54:07.783Z,2.6
2019-02-10T02:55:07.748Z,2.6
2019-02-10T02:56:07.646Z,2.6
2019-02-10T02:57:07.545Z,2.6
2019-02-10T02:58:07.463Z,2.6
2019-02-10T02:59:07.358Z,2.6
2019-02-10T03:00:07.249Z,2.6
2019-02-10T03:01:07.132Z,2.5
2019-02-10T03:02:07.110Z,2.5
2019-02-10T03:03:07.495Z,2.4
2019-02-10T03:04:07.418Z,2.4
2019-02-10T03:05:07.294Z,2.4
2019-02-10T03:06:07.200Z,2.3
2019-02-10T03:07:07.101Z,2.2
2019-02-10T03:08:07.008Z,2.2
2019-02-10T03:09:06.898Z,2.1
2019-02-10T03:10:06.800Z,2.1
2019-02-10T03:11:06.744Z,2
2019-02-10T03:12:06.632Z,2
2019-02-10T03:13:07.014Z,2
2019-02-10T03:14:06.921Z,1.9
2019-02-10T03:15:06.832Z,1.9
2019-02-10T03:16:06.803Z,2
2019-02-10T03:17:06.734Z,2
2019-02-10T03:18:06.656Z,2
2019-02-10T03:19:06.578Z,2
2019-02-10T03:20:06.487Z,2
2019-02-10T03:21:06.472Z,2
2019-02-10T03:22:06.360Z,1.9
2019-02-10T03:23:06.731Z,1.9
2019-02-10T03:24:06.636Z,1.9
2019-02-10T03:25:06.529Z,1.9
2019-02-10T03:26:06.446Z,1.9
2019-02-10T03:27:06.346Z,1.8
2019-02-10T03:28:06.300Z,1.9
2019-02-10T03:29:06.205Z,1.8
2019-02-10T03:30:06.133Z,1.8
2019-02-10T03:31:06.112Z,1.8
2019-02-10T03:32:06.175Z,1.8
2019-02-10T03:33:06.556Z,1.8
2019-02-10T03:34:06.701Z,1.8
2019-02-10T03:35:06.749Z,1.8
2019-02-10T03:36:06.638Z,1.9
2019-02-10T03:37:06.539Z,1.9
2019-02-10T03:38:06.446Z,1.9
2019-02-10T03:39:06.362Z,1.8
2019-02-10T03:40:06.253Z,1.9
2019-02-10T03:41:06.156Z,1.9
2019-02-10T03:42:06.036Z,1.9
2019-02-10T03:43:06.377Z,1.9
2019-02-10T03:44:06.282Z,2
2019-02-10T03:45:06.338Z,2
2019-02-10T03:46:06.226Z,2
2019-02-10T03:47:06.148Z,2
2019-02-10T03:48:06.045Z,2
2019-02-10T03:49:05.932Z,2
2019-02-10T03:50:05.830Z,2
2019-02-10T03:51:05.755Z,1.9
2019-02-10T03:52:05.687Z,1.9
2019-02-10T03:53:06.014Z,1.9
2019-02-10T03:54:05.959Z,1.9
2019-02-10T03:55:05.862Z,1.9
2019-02-10T03:56:05.782Z,1.9
2019-02-10T03:57:05.661Z,2
2019-02-10T03:58:05.655Z,2
2019-02-10T03:59:05.553Z,2
2019-02-10T04:00:05.440Z,1.9
2019-02-10T04:01:05.356Z,1.9
2019-02-10T04:02:05.280Z,1.9
2019-02-10T04:03:05.650Z,1.9
2019-02-10T04:04:05.575Z,2
2019-02-10T04:05:05.477Z,2
2019-02-10T04:06:05.373Z,2
2019-02-10T04:07:05.288Z,2
2019-02-10T04:08:05.219Z,2.1
2019-02-10T04:09:05.144Z,2
2019-02-10T04:10:05.064Z,2.1
2019-02-10T04:11:04.957Z,2.1
2019-02-10T04:12:04.878Z,2.1
2019-02-10T04:13:05.284Z,2.1
2019-02-10T04:14:05.178Z,2.1
2019-02-10T04:15:05.105Z,2.1
2019-02-10T04:16:05.001Z,2.2
2019-02-10T04:17:04.897Z,2.2
2019-02-10T04:18:04.836Z,2.2
2019-02-10T04:19:04.776Z,2.1
2019-02-10T04:20:04.665Z,2.2
2019-02-10T04:21:04.552Z,2.2
2019-02-10T04:22:04.431Z,2.2
2019-02-10T04:23:04.756Z,2.2
2019-02-10T04:24:04.652Z,2.2
2019-02-10T04:25:04.539Z,2.2
2019-02-10T04:26:04.464Z,2.2
2019-02-10T04:27:04.359Z,2.2
2019-02-10T04:28:04.272Z,2.2
2019-02-10T04:29:04.177Z,2.3
2019-02-10T04:30:04.065Z,2.2
2019-02-10T04:31:03.981Z,2.2
2019-02-10T04:32:03.865Z,2.2
2019-02-10T04:33:04.184Z,2.1
2019-02-10T04:34:04.098Z,2.1
2019-02-10T04:35:03.981Z,2.1
2019-02-10T04:36:03.875Z,2.1
2019-02-10T04:37:03.764Z,2.1
2019-02-10T04:38:03.643Z,2.1
2019-02-10T04:39:03.593Z,2.1
2019-02-10T04:40:03.474Z,2.1
2019-02-10T04:41:03.357Z,2.1
2019-02-10T04:42:03.269Z,2.1
2019-02-10T04:43:03.586Z,2.2
2019-02-10T04:44:03.480Z,2.2
2019-02-10T04:45:03.420Z,2.2
2019-02-10T04:46:03.359Z,2.2
2019-02-10T04:47:03.247Z,2.2
2019-02-10T04:48:03.187Z,2.2
2019-02-10T04:49:03.086Z,2.2
2019-02-10T04:50:03.009Z,2.2
2019-02-10T04:51:02.920Z,2.2
2019-02-10T04:52:02.811Z,2.2
2019-02-10T04:53:03.121Z,2.2
2019-02-10T04:54:03.045Z,2.2
2019-02-10T04:55:02.996Z,2.2
2019-02-10T04:56:02.938Z,2.2
2019-02-10T04:57:02.831Z,2.2
2019-02-10T04:58:02.721Z,2.2
2019-02-10T04:59:02.609Z,2.2
2019-02-10T05:00:02.515Z,2.2
2019-02-10T05:01:02.413Z,2.2
2019-02-10T05:02:02.324Z,2.2
2019-02-10T05:03:02.651Z,2.2
2019-02-10T05:04:02.533Z,2.2
2019-02-10T05:05:02.476Z,2.2
2019-02-10T05:06:02.403Z,2.2
2019-02-10T05:07:02.293Z,2.2
2019-02-10T05:08:02.233Z,2.3
2019-02-10T05:09:02.126Z,2.2
2019-02-10T05:10:02.039Z,2.2
2019-02-10T05:11:01.932Z,2.3
2019-02-10T05:12:01.804Z,2.2
2019-02-10T05:13:02.152Z,2.3
2019-02-10T05:14:02.035Z,2.3
2019-02-10T05:15:01.964Z,2.3
2019-02-10T05:16:01.855Z,2.3
2019-02-10T05:17:01.747Z,2.3
2019-02-10T05:18:01.682Z,2.3
2019-02-10T05:19:01.628Z,2.3
2019-02-10T05:20:01.562Z,2.3
2019-02-10T05:21:01.490Z,2.3
2019-02-10T05:22:01.380Z,2.3
2019-02-10T05:23:01.698Z,2.4
2019-02-10T05:24:04.377Z,2.4
2019-02-10T05:25:04.300Z,2.4
2019-02-10T05:26:04.202Z,2.4
2019-02-10T05:27:04.094Z,2.4
2019-02-10T05:28:03.975Z,2.4
2019-02-10T05:29:03.884Z,2.4
2019-02-10T05:30:03.788Z,2.4
2019-02-10T05:31:03.718Z,2.4
2019-02-10T05:32:03.633Z,2.4
2019-02-10T05:33:04.045Z,2.4
2019-02-10T05:34:03.938Z,2.4
2019-02-10T05:35:03.879Z,2.5
2019-02-10T05:36:03.788Z,2.4
2019-02-10T05:37:03.689Z,2.5
2019-02-10T05:38:05.235Z,2.5
2019-02-10T05:39:05.150Z,2.5
2019-02-10T05:40:05.114Z,2.5
2019-02-10T05:41:05.006Z,2.5
2019-02-10T05:42:04.910Z,2.5
2019-02-10T05:43:05.281Z,2.5
2019-02-10T05:44:05.172Z,2.5
2019-02-10T05:45:05.072Z,2.5
2019-02-10T05:46:04.994Z,2.5
2019-02-10T05:47:04.867Z,2.5
2019-02-10T05:48:04.852Z,2.5
2019-02-10T05:49:04.740Z,2.5
2019-02-10T05:50:04.634Z,2.5
2019-02-10T05:51:04.552Z,2.5
2019-02-10T05:52:04.462Z,2.5
2019-02-10T05:53:04.778Z,2.6
2019-02-10T05:54:04.679Z,2.5
2019-02-10T05:55:04.578Z,2.6
2019-02-10T05:56:04.602Z,2.6
2019-02-10T05:57:04.553Z,2.5
2019-02-10T05:58:04.459Z,2.5
2019-02-10T05:59:04.366Z,2.6
2019-02-10T06:00:04.275Z,2.5
2019-02-10T06:01:04.194Z,2.5
2019-02-10T06:02:04.112Z,2.5
2019-02-10T06:03:04.477Z,2.5
2019-02-10T06:04:04.380Z,2.5
2019-02-10T06:05:04.280Z,2.5
2019-02-10T06:06:04.177Z,2.5
2019-02-10T06:07:04.090Z,2.5
2019-02-10T06:08:14.151Z,2.5
2019-02-10T06:09:14.037Z,2.5
2019-02-10T06:10:13.950Z,2.5
2019-02-10T06:11:13.861Z,2.5
2019-02-10T06:12:13.765Z,2.5
2019-02-10T06:13:14.133Z,2.5
2019-02-10T06:14:14.037Z,2.5
2019-02-10T06:15:13.946Z,2.5
2019-02-10T06:16:13.848Z,2.5
2019-02-10T06:17:13.740Z,2.5
2019-02-10T06:18:13.638Z,2.4
2019-02-10T06:19:13.572Z,2.4
2019-02-10T06:20:13.465Z,2.4
2019-02-10T06:21:13.366Z,2.4
2019-02-10T06:22:13.287Z,2.4
2019-02-10T06:23:13.608Z,2.2
2019-02-10T06:24:13.542Z,2.2
2019-02-10T06:25:13.485Z,2.1
2019-02-10T06:26:13.372Z,2.2
2019-02-10T06:27:13.256Z,2.3
2019-02-10T06:28:13.128Z,2.4
2019-02-10T06:29:13.019Z,2.4
2019-02-10T06:30:12.963Z,2.5
2019-02-10T06:31:12.886Z,2.5
2019-02-10T06:32:12.800Z,2.6
2019-02-10T06:33:13.111Z,2.6
2019-02-10T06:34:13.013Z,2.6
2019-02-10T06:35:12.969Z,2.6
2019-02-10T06:36:12.860Z,2.6
2019-02-10T06:37:12.802Z,2.6
2019-02-10T06:38:13.933Z,2.6
2019-02-10T06:39:22.785Z,2.6
2019-02-10T06:40:22.691Z,2.6
2019-02-10T06:41:22.589Z,2.5
2019-02-10T06:42:22.471Z,2.5
2019-02-10T06:43:22.801Z,2.4
2019-02-10T06:44:22.687Z,2.4
2019-02-10T06:45:22.602Z,2.4
2019-02-10T06:46:22.480Z,2.4
2019-02-10T06:47:22.358Z,2.4
2019-02-10T06:48:22.249Z,2.4
2019-02-10T06:49:22.151Z,2.4
2019-02-10T06:50:22.037Z,2.4
2019-02-10T06:51:21.933Z,2.3
2019-02-10T06:52:21.815Z,2.3
2019-02-10T06:53:22.226Z,2.3
2019-02-10T06:54:22.123Z,2.2
2019-02-10T06:55:22.043Z,2.3
2019-02-10T06:56:21.923Z,2.3
2019-02-10T06:57:21.817Z,2.3
2019-02-10T06:58:21.722Z,2.3
2019-02-10T06:59:21.609Z,2.4
2019-02-10T07:00:21.508Z,2.3
2019-02-10T07:01:21.401Z,2.3
2019-02-10T07:02:21.279Z,2.3
2019-02-10T07:03:21.587Z,2.3
2019-02-10T07:04:21.481Z,2.4
2019-02-10T07:05:21.389Z,2.4
2019-02-10T07:06:21.284Z,2.4
2019-02-10T07:07:21.149Z,2.4
2019-02-10T07:08:21.059Z,2.4
2019-02-10T07:09:20.953Z,2.4
2019-02-10T07:10:20.845Z,2.4
2019-02-10T07:11:20.747Z,2.4
2019-02-10T07:12:20.649Z,2.4
2019-02-10T07:13:20.981Z,2.4
2019-02-10T07:14:20.882Z,2.3
2019-02-10T07:15:20.766Z,2.3
2019-02-10T07:16:20.683Z,2.4
2019-02-10T07:17:20.587Z,2.5
2019-02-10T07:18:20.475Z,2.5
2019-02-10T07:21:19.825Z,2.7
2019-02-10T07:22:19.755Z,2.8
2019-02-10T07:23:20.030Z,2.8
2019-02-10T07:24:19.923Z,2.8
2019-02-10T07:25:19.839Z,2.8
2019-02-10T07:26:19.733Z,2.8
2019-02-10T07:27:19.629Z,2.8
2019-02-10T07:28:19.547Z,2.8
2019-02-10T07:29:19.443Z,2.8
2019-02-10T07:30:19.351Z,2.7
2019-02-10T07:31:19.229Z,2.7
2019-02-10T07:32:19.121Z,2.7
2019-02-10T07:33:19.463Z,2.7
2019-02-10T07:34:19.382Z,2.6
2019-02-10T07:35:19.296Z,2.5
2019-02-10T07:36:19.193Z,2.5
2019-02-10T07:37:19.087Z,2.5
2019-02-10T07:38:18.971Z,2.5
2019-02-10T07:39:18.866Z,2.5
2019-02-10T07:40:18.835Z,2.5
2019-02-10T07:41:18.727Z,2.5
2019-02-10T07:42:18.617Z,2.5
2019-02-10T07:43:18.944Z,2.6
2019-02-10T07:44:18.849Z,2.5
2019-02-10T07:45:18.729Z,2.5
2019-02-10T07:46:18.655Z,2.6
2019-02-10T07:47:18.546Z,2.6
2019-02-10T07:48:18.511Z,2.7
2019-02-10T07:49:18.400Z,2.8
2019-02-10T07:50:18.285Z,2.8
2019-02-10T07:51:18.228Z,2.8
2019-02-10T07:52:18.123Z,2.8
2019-02-10T07:53:18.445Z,2.9
2019-02-10T07:54:18.325Z,2.9
2019-02-10T07:55:18.240Z,2.9
2019-02-10T07:56:18.154Z,2.9
2019-02-10T07:57:18.040Z,2.9
2019-02-10T07:58:17.935Z,3
2019-02-10T07:59:17.828Z,3
2019-02-10T08:00:17.707Z,2.9
2019-02-10T08:01:17.623Z,2.9
2019-02-10T08:02:17.503Z,2.9
2019-02-10T08:03:17.819Z,2.9
2019-02-10T08:04:17.758Z,2.9
2019-02-10T08:05:17.655Z,2.9
2019-02-10T08:06:17.575Z,2.9
2019-02-10T08:07:17.478Z,2.9
2019-02-10T08:08:17.433Z,2.9
2019-02-10T08:09:17.322Z,2.9
2019-02-10T08:10:17.229Z,2.9
2019-02-10T08:11:17.128Z,3
2019-02-10T08:12:17.025Z,3
2019-02-10T08:13:18.214Z,3.1
2019-02-10T08:14:18.094Z,3.1
2019-02-10T08:15:17.979Z,3.1
2019-02-10T08:16:17.861Z,3.1
2019-02-10T08:17:17.772Z,3.1
2019-02-10T08:18:17.664Z,3.2
2019-02-10T08:19:17.569Z,3.3
2019-02-10T08:20:17.448Z,3.3
2019-02-10T08:21:17.429Z,3.4
2019-02-10T08:22:17.452Z,3.4
2019-02-10T08:23:17.809Z,3.5
2019-02-10T08:24:17.694Z,3.6
2019-02-10T08:25:17.604Z,3.6
2019-02-10T08:26:17.529Z,3.7
2019-02-10T08:27:17.454Z,3.7
2019-02-10T08:28:17.356Z,3.7
2019-02-10T08:29:17.309Z,3.7
2019-02-10T08:30:17.234Z,3.7
2019-02-10T08:31:17.147Z,3.7
2019-02-10T08:32:17.036Z,3.7
2019-02-10T08:33:17.371Z,3.7
2019-02-10T08:34:17.295Z,3.7
2019-02-10T08:35:17.205Z,3.7
2019-02-10T08:36:17.082Z,3.7
2019-02-10T08:37:16.974Z,3.7
2019-02-10T08:38:16.864Z,3.7
2019-02-10T08:39:16.752Z,3.7
2019-02-10T08:40:16.650Z,3.6
2019-02-10T08:41:16.558Z,3.6
2019-02-10T08:42:16.448Z,3.6
2019-02-10T08:43:16.815Z,3.6
2019-02-10T08:44:16.708Z,3.6
2019-02-10T08:45:16.636Z,3.6
2019-02-10T08:46:16.572Z,3.6
2019-02-10T08:47:16.471Z,3.6
2019-02-10T08:48:16.373Z,3.6
2019-02-10T08:49:16.250Z,3.7
2019-02-10T08:50:16.144Z,3.7
2019-02-10T08:51:16.096Z,3.7
2019-02-10T08:52:15.986Z,3.7
2019-02-10T08:53:22.089Z,3.7
2019-02-10T08:54:21.982Z,3.7
2019-02-10T08:55:21.877Z,3.7
2019-02-10T08:56:21.784Z,3.8
2019-02-10T08:57:21.714Z,3.8
2019-02-10T08:58:21.598Z,3.8
2019-02-10T08:59:21.486Z,3.8
2019-02-10T09:00:21.394Z,3.8
2019-02-10T09:01:21.326Z,3.8
2019-02-10T09:02:21.231Z,3.8
2019-02-10T09:03:21.551Z,3.9
2019-02-10T09:04:21.458Z,3.9
2019-02-10T09:05:21.370Z,4
2019-02-10T09:06:21.305Z,4
2019-02-10T09:07:21.209Z,4
2019-02-10T09:08:21.150Z,4
2019-02-10T09:09:21.065Z,4.1
2019-02-10T09:10:20.964Z,4.1
2019-02-10T09:11:20.860Z,4.2
2019-02-10T09:12:20.779Z,4.1
2019-02-10T09:13:21.111Z,4.2
2019-02-10T09:14:21.025Z,4.2
2019-02-10T09:15:20.974Z,4.3
2019-02-10T09:16:20.880Z,4.3
2019-02-10T09:17:20.785Z,4.3
2019-02-10T09:18:20.687Z,4.4
2019-02-10T09:19:21.176Z,4.4
2019-02-10T09:20:21.081Z,4.3
2019-02-10T09:21:20.972Z,4.3
2019-02-10T09:22:20.876Z,4.3
2019-02-10T09:23:21.240Z,4.2
2019-02-10T09:24:21.148Z,4.3
2019-02-10T09:25:21.108Z,4.3
2019-02-10T09:26:20.991Z,4.3
2019-02-10T09:27:20.894Z,4.4
2019-02-10T09:28:20.802Z,4.4
2019-02-10T09:29:20.690Z,4.4
2019-02-10T09:30:20.587Z,4.4
2019-02-10T09:31:20.462Z,4.4
2019-02-10T09:32:20.376Z,4.4
2019-02-10T09:33:20.782Z,4.4
2019-02-10T09:34:20.754Z,4.5
2019-02-10T09:35:20.629Z,4.5
2019-02-10T09:36:20.508Z,4.5
2019-02-10T09:37:20.420Z,4.6
2019-02-10T09:38:20.330Z,4.6
2019-02-10T09:39:20.212Z,4.6
2019-02-10T09:40:20.124Z,4.6
2019-02-10T09:41:20.034Z,4.7
2019-02-10T09:42:19.938Z,4.7
2019-02-10T09:43:20.270Z,4.8
2019-02-10T09:44:20.160Z,4.8
2019-02-10T09:45:20.042Z,4.8
2019-02-10T09:46:19.923Z,4.9
2019-02-10T09:47:19.820Z,5
2019-02-10T09:48:19.716Z,5.1
2019-02-10T09:49:19.622Z,5.2
2019-02-10T09:50:19.534Z,5.2
2019-02-10T09:51:19.494Z,5.3
2019-02-10T09:52:19.399Z,5.3
2019-02-10T09:53:19.754Z,5.4
2019-02-10T09:54:19.655Z,5.4
2019-02-10T09:55:19.584Z,5.4
2019-02-10T09:56:19.492Z,5.5
2019-02-10T09:57:19.409Z,5.5
2019-02-10T09:58:19.334Z,5.6
2019-02-10T09:59:19.266Z,5.7
2019-02-10T10:00:19.183Z,5.7
2019-02-10T10:01:19.150Z,5.7
2019-02-10T10:02:19.079Z,5.7
2019-02-10T10:03:19.438Z,5.7
2019-02-10T10:04:19.333Z,5.7
2019-02-10T10:05:19.286Z,5.8
2019-02-10T10:06:19.190Z,5.9
2019-02-10T10:07:19.130Z,5.9
2019-02-10T10:08:19.034Z,5.9
2019-02-10T10:09:20.301Z,5.9
2019-02-10T10:10:20.211Z,6
2019-02-10T10:11:20.110Z,5.9
2019-02-10T10:12:20.011Z,5.9
2019-02-10T10:13:20.433Z,6
2019-02-10T10:14:20.413Z,6
2019-02-10T10:15:20.310Z,6
2019-02-10T10:16:20.220Z,6.1
2019-02-10T10:17:20.115Z,6.1
2019-02-10T10:18:20.010Z,6.1
2019-02-10T10:19:19.912Z,6
2019-02-10T10:20:19.808Z,6
2019-02-10T10:21:19.746Z,6.1
2019-02-10T10:22:19.631Z,6
2019-02-10T10:23:19.975Z,6
2019-02-10T10:24:19.872Z,6.1
2019-02-10T10:25:19.774Z,6.1
2019-02-10T10:26:19.659Z,6.1
2019-02-10T10:27:19.573Z,6.2
2019-02-10T10:28:19.522Z,6.2
2019-02-10T10:29:19.433Z,6.4
2019-02-10T10:30:19.335Z,6.4
2019-02-10T10:31:19.236Z,6.5
2019-02-10T10:32:19.147Z,6.5
2019-02-10T10:33:19.501Z,6.6
2019-02-10T10:34:19.405Z,6.6
2019-02-10T10:35:19.303Z,6.7
2019-02-10T10:36:21.846Z,6.8
2019-02-10T10:37:21.793Z,6.9
2019-02-10T10:38:21.749Z,7
2019-02-10T10:39:28.125Z,7.2
2019-02-10T10:40:28.002Z,7.3
2019-02-10T10:41:27.953Z,7.5
2019-02-10T10:42:27.892Z,7.5
2019-02-10T10:43:28.221Z,7.5
2019-02-10T10:44:28.135Z,7.6
2019-02-10T10:45:28.057Z,7.7
2019-02-10T10:46:30.716Z,7.8
2019-02-10T10:47:30.639Z,7.9
2019-02-10T10:48:30.539Z,7.9
2019-02-10T10:49:30.447Z,7.9
2019-02-10T10:50:30.400Z,7.8
2019-02-10T10:51:30.303Z,7.8
2019-02-10T10:52:30.217Z,7.9
2019-02-10T10:53:30.609Z,7.9
2019-02-10T10:54:30.513Z,7.9
2019-02-10T10:55:30.411Z,7.9
2019-02-10T10:56:30.313Z,7.9
2019-02-10T10:57:30.222Z,7.9
2019-02-10T10:58:30.187Z,8
2019-02-10T10:59:30.113Z,8
2019-02-10T11:00:29.999Z,8.1
2019-02-10T11:01:29.889Z,8.1
2019-02-10T11:02:29.777Z,8.2
2019-02-10T11:03:30.101Z,8.2
2019-02-10T11:04:30.038Z,8.3
2019-02-10T11:05:29.947Z,8.3
2019-02-10T11:06:29.851Z,8.4
2019-02-10T11:07:29.739Z,8.4
2019-02-10T11:08:29.646Z,8.4
2019-02-10T11:09:36.300Z,8.5
2019-02-10T11:10:36.197Z,8.5
2019-02-10T11:11:36.095Z,8.5
2019-02-10T11:12:35.987Z,8.4
2019-02-10T11:13:36.329Z,8.4
2019-02-10T11:14:36.227Z,8.4
2019-02-10T11:15:36.146Z,8.4
2019-02-10T11:16:36.041Z,8.5
2019-02-10T11:17:35.949Z,8.6
2019-02-10T11:18:35.866Z,8.6
2019-02-10T11:19:35.790Z,8.6
2019-02-10T11:20:35.689Z,8.5
2019-02-10T11:21:35.593Z,8.5
2019-02-10T11:22:35.514Z,8.5
2019-02-10T11:23:35.827Z,8.5
2019-02-10T11:24:35.750Z,8.6
2019-02-10T11:25:35.660Z,8.7
2019-02-10T11:26:35.551Z,8.8
2019-02-10T11:27:35.442Z,8.9
2019-02-10T11:28:35.336Z,9
2019-02-10T11:29:35.228Z,9.2
2019-02-10T11:30:35.155Z,9.3
2019-02-10T11:31:35.054Z,9.4
2019-02-10T11:32:34.943Z,9.5
2019-02-10T11:33:35.276Z,9.7
2019-02-10T11:34:35.159Z,9.8
2019-02-10T11:35:35.074Z,9.9
2019-02-10T11:36:34.965Z,10
2019-02-10T11:37:34.842Z,10.1
2019-02-10T11:38:34.737Z,10.1
2019-02-10T11:39:34.629Z,10.1
2019-02-10T11:40:34.513Z,10.1
2019-02-10T11:41:34.419Z,10.1
2019-02-10T11:42:34.311Z,10.1
2019-02-10T11:43:34.731Z,10
2019-02-10T11:44:34.622Z,10
2019-02-10T11:45:34.512Z,10
2019-02-10T11:46:34.431Z,10.1
2019-02-10T11:47:34.347Z,10.1
2019-02-10T11:48:34.244Z,10.1
2019-02-10T11:49:34.150Z,10.1
2019-02-10T11:50:34.039Z,10.1
2019-02-10T11:51:33.927Z,10.1
2019-02-10T11:52:33.843Z,10.1
2019-02-10T11:53:34.174Z,10.1
2019-02-10T11:54:34.088Z,10.1
2019-02-10T11:55:34.027Z,10.1
2019-02-10T11:56:33.938Z,10.2
2019-02-10T11:57:33.854Z,10.2
2019-02-10T11:58:33.757Z,10.3
2019-02-10T11:59:33.649Z,10.3
2019-02-10T12:00:33.559Z,10.3
2019-02-10T12:01:33.446Z,10.2
2019-02-10T12:02:38.720Z,10.1
2019-02-10T12:03:39.066Z,10.2
2019-02-10T12:04:38.986Z,10.1
2019-02-10T12:05:38.885Z,10.2
2019-02-10T12:06:38.780Z,10.4
2019-02-10T12:07:39.740Z,10.5
2019-02-10T12:08:39.655Z,10.5
2019-02-10T12:09:39.570Z,10.5
2019-02-10T12:10:39.473Z,10.4
2019-02-10T12:11:39.370Z,10.4
2019-02-10T12:12:39.266Z,10.4
2019-02-10T12:13:41.216Z,10.4
2019-02-10T12:14:41.126Z,10.4
2019-02-10T12:15:41.089Z,10.4
2019-02-10T12:16:40.988Z,10.4
2019-02-10T12:17:40.885Z,10.5
2019-02-10T12:18:40.815Z,10.5
2019-02-10T12:19:40.739Z,10.5
2019-02-10T12:20:40.620Z,10.4
2019-02-10T12:21:40.512Z,10.5
2019-02-10T12:22:40.406Z,10.5
2019-02-10T12:23:40.750Z,10.4
2019-02-10T12:24:40.696Z,10.5
2019-02-10T12:25:40.598Z,10.5
2019-02-10T12:26:40.524Z,10.6
2019-02-10T12:27:40.462Z,10.6
2019-02-10T12:28:40.352Z,10.7
2019-02-10T12:29:40.258Z,10.6
2019-02-10T12:30:40.152Z,10.6
2019-02-10T12:31:40.047Z,10.7
2019-02-10T12:32:39.950Z,10.6
2019-02-10T12:33:40.332Z,10.6
2019-02-10T12:34:40.267Z,10.7
2019-02-10T12:35:40.180Z,10.7
2019-02-10T12:36:40.086Z,10.7
2019-02-10T12:37:40.012Z,10.7
2019-02-10T12:38:39.928Z,10.7
2019-02-10T12:39:39.827Z,10.7
2019-02-10T12:40:39.754Z,10.6
2019-02-10T12:41:39.674Z,10.6
2019-02-10T12:42:39.657Z,10.6
2019-02-10T12:43:40.010Z,10.7
2019-02-10T12:44:39.915Z,10.7
2019-02-10T12:45:39.822Z,10.7
2019-02-10T12:46:39.717Z,10.7
2019-02-10T12:47:39.638Z,10.7
2019-02-10T12:48:39.530Z,10.7
2019-02-10T12:49:39.406Z,10.6
2019-02-10T12:50:39.332Z,10.6
2019-02-10T12:51:39.219Z,10.6
2019-02-10T12:52:39.134Z,10.7
2019-02-10T12:53:39.451Z,10.6
2019-02-10T12:54:39.350Z,10.6
2019-02-10T12:55:39.248Z,10.7
2019-02-10T12:56:39.134Z,10.7
2019-02-10T12:57:39.051Z,10.7
2019-02-10T12:58:38.953Z,10.7
2019-02-10T12:59:38.846Z,10.7
2019-02-10T13:00:38.750Z,10.7
2019-02-10T13:01:38.659Z,10.7
2019-02-10T13:02:38.554Z,10.7
2019-02-10T13:03:38.898Z,10.7
2019-02-10T13:04:38.807Z,10.7
2019-02-10T13:05:38.709Z,10.6
2019-02-10T13:06:38.620Z,10.6
2019-02-10T13:07:38.515Z,10.6
2019-02-10T13:08:38.426Z,10.7
2019-02-10T13:09:38.328Z,10.7
2019-02-10T13:10:38.216Z,10.7
2019-02-10T13:11:38.131Z,10.6
2019-02-10T13:12:38.029Z,10.6
2019-02-10T13:13:38.426Z,10.6
2019-02-10T13:14:38.307Z,10.6
2019-02-10T13:15:38.383Z,10.6
2019-02-10T13:16:38.292Z,10.6
2019-02-10T13:17:38.190Z,10.7
2019-02-10T13:18:38.099Z,10.6
2019-02-10T13:19:38.005Z,10.6
2019-02-10T13:20:37.898Z,10.6
2019-02-10T13:21:38.250Z,10.5
2019-02-10T13:22:38.146Z,10.5
2019-02-10T13:23:38.482Z,10.5
2019-02-10T13:24:38.372Z,10.6
2019-02-10T13:25:38.260Z,10.6
2019-02-10T13:26:39.180Z,10.6
2019-02-10T13:27:39.092Z,10.6
2019-02-10T13:28:38.993Z,10.6
2019-02-10T13:29:38.878Z,10.6
2019-02-10T13:30:38.834Z,10.6
2019-02-10T13:31:38.735Z,10.5
2019-02-10T13:32:38.656Z,10.5
2019-02-10T13:33:39.090Z,10.5
2019-02-10T13:34:39.008Z,10.5
2019-02-10T13:35:39.040Z,10.5
2019-02-10T13:36:38.963Z,10.5
2019-02-10T13:37:38.862Z,10.5
2019-02-10T13:38:38.780Z,10.4
2019-02-10T13:39:38.699Z,10.4
2019-02-10T13:40:38.591Z,10.4
2019-02-10T13:41:38.492Z,10.5
2019-02-10T13:42:38.398Z,10.4
2019-02-10T13:43:38.701Z,10.4
2019-02-10T13:44:38.614Z,10.4
2019-02-10T13:45:38.517Z,10.4
2019-02-10T13:46:38.402Z,10.4
2019-02-10T13:47:38.317Z,10.4
2019-02-10T13:48:38.217Z,10.4
2019-02-10T13:49:38.125Z,10.4
2019-02-10T13:50:38.033Z,10.4
2019-02-10T13:51:37.933Z,10.4
2019-02-10T13:52:37.833Z,10.3
2019-02-10T13:53:39.059Z,10.4
2019-02-10T13:54:38.967Z,10.4
2019-02-10T13:55:38.895Z,10.4
2019-02-10T13:56:38.797Z,10.5
2019-02-10T13:57:38.695Z,10.5
2019-02-10T13:58:38.591Z,10.5
2019-02-10T13:59:38.492Z,10.5
2019-02-10T14:00:38.379Z,10.5
2019-02-10T14:01:38.275Z,10.5
2019-02-10T14:02:38.159Z,10.4
2019-02-10T14:03:38.563Z,10.4
2019-02-10T14:04:38.491Z,10.4
2019-02-10T14:05:38.391Z,10.4